Terminal Aerodrome Forecast
Issued by NWS

Home | Current Version | Previous Version | Text Only | Print | Product List | Glossary On
Versions: 1 2 3 4 5 6 7 8 9 10 11 12 13 14 15 16 17 18 19 20 21 22 23 24 25 26 27 28 29 30
000
FTUS45 KLKN 221149
TAFTPH
TAF
KTPH 221149Z 2212/2312 15014KT 3SM -SN BKN015 OVC025
     FM221800 18020G30KT 1 1/2SM -SN BLSN OVC012
      TEMPO 2220/2224 18016G28KT 1SM -SN BLSN OVC008
     FM230200 17011G21KT 2SM -SN OVC010
     FM230800 27014G24KT 2SM -SN OVC010=

USA.gov is the U.S. government's official web portal to all federal, state and local government web resources and services.